• Join FlightAware (Why Join?)
  • Login
  • US Flag 
09:23AM EDT


 

Airport Tracker/Info


-or-


 

Live Flight TrackerFlight Track Log ✈ N507PD ✈ 26-Apr-2013 ✈ KCPS - KLOT

Flight Track Log - Related Links

Times and Time Zones

All times are in EDT time to prevent confusion due to time zone crossing. See the N507PD flight status page for this flight to view local times or setup timezone preferences in your user account.

Time Position Orientation Groundspeed Altitude Reporting Facility
EDT Latitude Longitude Course Direction KTS MPH feet Rate Location/Type
10:43PM 38.5500 -90.1167 36° Northeast 209 241 2,100  Level Gateway (St. Louis) TRACON
10:44PM 38.6069 -90.0633 36° Northeast 259 298 4,600 3,120 Climbing Kansas City Center
10:45PM 38.6819 -90.0408 13° North 270 311 8,200 3,600 Climbing Kansas City Center
10:46PM 38.7564 -90.0189 13° North 276 318 12,000 3,240 Climbing Kansas City Center
10:47PM 38.8322 -89.9961 13° North 280 322 14,900 2,520 Climbing Kansas City Center
10:48PM 38.9231 -89.9667 14° North 302 348 17,200 2,160 Climbing Kansas City Center
10:49PM 39.0119 -89.9411 13° North 325 374 19,300 2,220 Climbing Kansas City Center
10:50PM 39.0939 -89.8953 23° Northeast 321 369 21,800 1,800 Climbing Kansas City Center
10:51PM 39.1753 -89.8408 27° Northeast 328 377 23,000 780 Climbing Kansas City Center
10:52PM 39.2583 -89.7847 28° Northeast 371 427 23,500 720 Climbing Kansas City Center
10:53PM 39.3569 -89.7197 27° Northeast 393 452 24,500 900 Climbing Kansas City Center
10:54PM 39.4592 -89.6528 27° Northeast 407 468 25,400 1,020 Climbing Kansas City Center
10:55PM 39.5853 -89.5686 27° Northeast 423 487 26,600 780 Climbing Kansas City Center
10:56PM 39.6917 -89.4969 27° Northeast 430 495 27,000 180 Climbing Kansas City Center
10:57PM 39.7900 -89.4325 27° Northeast 444 511 27,000  Level Kansas City Center
10:58PM 39.9008 -89.3589 27° Northeast 448 516 27,000 -300 Level Kansas City Center
10:59PM 40.0367 -89.2767 25° Northeast 450 518 26,500 -720 Descending Kansas City Center
11:00PM 40.1478 -89.2069 26° Northeast 447 514 25,600 -780 Descending Kansas City Center
11:00PM 40.1681 -89.1953 24° Northeast 442 509 25,500 -1,020 Descending Chicago Center
11:01PM 40.2969 -89.1142 26° Northeast 432 497 24,300 -1,140 Descending Chicago Center
11:02PM 40.3967 -89.0519 25° Northeast 403 464 23,300 -1,020 Descending Chicago Center
11:03PM 40.4917 -88.9928 25° Northeast 383 441 22,300 -1,020 Descending Chicago Center
11:04PM 40.5842 -88.9344 26° Northeast 372 428 21,300 -1,080 Descending Chicago Center
11:05PM 40.6781 -88.8747 26° Northeast 374 430 20,200 -1,080 Descending Chicago Center
11:07PM 40.7717 -88.8156 26° Northeast 377 434 19,200 -1,320 Descending Chicago Center
11:08PM 40.8639 -88.7581 25° Northeast 369 425 17,600 -1,920 Descending Chicago Center
11:09PM 40.9500 -88.7014 26° Northeast 350 403 15,300 -2,340 Descending Chicago Center
11:10PM 41.0342 -88.6472 26° Northeast 340 391 12,900 -2,220 Descending Chicago Center
11:11PM 41.1161 -88.5956 25° Northeast 331 381 10,800 -2,280 Descending Chicago Center
11:12PM 41.2025 -88.5397 26° Northeast 296 341 8,300 -2,400 Descending Chicago Center
11:13PM 41.2617 -88.4661 43° Northeast 290 334 6,000 -1,680 Descending Chicago Center
11:14PM 41.3183 -88.3911 45° Northeast 288 331 5,000 -600 Descending Chicago Center
11:15PM 41.3733 -88.3183 45° Northeast 281 323 4,800 -840 Descending Chicago Center
11:16PM 41.4278 -88.2453 45° Northeast 278 320 3,400 -1,140 Descending Chicago Center
11:17PM 41.4758 -88.1839 44° Northeast 256 295 2,600 -840 Descending Chicago Center